createdAt,value
2022-10-15T00:02:22.548Z,97623.56
2022-10-15T00:04:48.990Z,97628.38
2022-10-15T00:07:16.766Z,97621.75
2022-10-15T00:09:43.271Z,97616.19
2022-10-15T00:12:10.092Z,97609.56
2022-10-15T00:14:36.616Z,97610.34
2022-10-15T00:17:03.097Z,97619.69
2022-10-15T00:19:30.197Z,97617.34
2022-10-15T00:21:56.714Z,97621.88
2022-10-15T00:24:23.218Z,97617.63
2022-10-15T00:26:49.950Z,97620.56
2022-10-15T00:29:16.388Z,97616.59
2022-10-15T00:31:42.871Z,97617.41
2022-10-15T00:34:09.369Z,97615.00
2022-10-15T00:36:36.147Z,97622.72
2022-10-15T00:39:04.328Z,97618.41
2022-10-15T00:41:36.599Z,97615.44
2022-10-15T00:44:25.796Z,97612.72
2022-10-15T00:47:04.678Z,97610.06
2022-10-15T00:49:32.769Z,97600.97
2022-10-15T00:52:03.367Z,97594.84
2022-10-15T00:54:32.662Z,97599.09
2022-10-15T00:56:59.134Z,97592.16
2022-10-15T00:59:26.012Z,97590.09
2022-10-15T01:01:52.827Z,97592.22
2022-10-15T01:04:19.274Z,97586.91
2022-10-15T01:06:46.055Z,97586.66
2022-10-15T01:09:12.782Z,97584.53
2022-10-15T01:11:42.492Z,97581.00
2022-10-15T01:14:39.768Z,97585.19
2022-10-15T01:17:31.396Z,97575.53
2022-10-15T01:20:40.391Z,97574.44
2022-10-15T01:23:15.935Z,97573.09
2022-10-15T01:26:07.764Z,97578.91
2022-10-15T01:28:34.172Z,97565.56
2022-10-15T01:31:06.191Z,97572.88
2022-10-15T01:33:37.019Z,97574.66
2022-10-15T01:36:13.410Z,97559.44
2022-10-15T01:39:13.872Z,97556.00
2022-10-15T01:41:44.540Z,97558.13
2022-10-15T01:44:18.402Z,97566.44
2022-10-15T01:47:11.508Z,97559.53
2022-10-15T01:49:40.984Z,97563.84
2022-10-15T01:52:09.891Z,97560.31
2022-10-15T01:54:36.343Z,97552.09
2022-10-15T01:57:02.930Z,97575.00
2022-10-15T01:59:31.227Z,97565.72
2022-10-15T02:01:58.512Z,97566.50
2022-10-15T02:04:28.198Z,97572.94
2022-10-15T02:07:11.644Z,97564.41
2022-10-15T02:10:07.638Z,97559.06
2022-10-15T02:13:11.635Z,97562.81
2022-10-15T02:16:05.215Z,97560.44
2022-10-15T02:18:40.315Z,97545.81
2022-10-15T02:21:16.348Z,97553.00
2022-10-15T02:24:06.561Z,97560.53
2022-10-15T02:26:33.019Z,97557.06
2022-10-15T02:29:01.867Z,97559.72
2022-10-15T02:31:29.901Z,97556.53
2022-10-15T02:33:59.255Z,97549.63
2022-10-15T02:36:25.722Z,97551.19
2022-10-15T02:38:52.349Z,97549.56
2022-10-15T02:41:18.802Z,97535.66
2022-10-15T02:43:45.424Z,97536.16
2022-10-15T02:46:11.887Z,97537.22
2022-10-15T02:48:38.373Z,97539.91
2022-10-15T02:51:04.941Z,97539.59
2022-10-15T02:53:31.403Z,97533.47
2022-10-15T02:55:57.861Z,97531.59
2022-10-15T02:58:24.752Z,97540.19
2022-10-15T03:00:52.527Z,97550.88
2022-10-15T03:03:19.002Z,97536.75
2022-10-15T03:05:45.972Z,97539.66
2022-10-15T03:08:12.427Z,97551.44
2022-10-15T03:10:38.871Z,97553.31
2022-10-15T03:13:05.606Z,97549.06
2022-10-15T03:15:32.166Z,97536.78
2022-10-15T03:17:58.624Z,97548.84
2022-10-15T03:20:25.130Z,97549.38
2022-10-15T03:22:51.577Z,97552.06
2022-10-15T03:25:18.022Z,97542.97
2022-10-15T03:27:44.488Z,97549.84
2022-10-15T03:30:11.165Z,97540.41
2022-10-15T03:32:37.683Z,97549.16
2022-10-15T03:35:04.388Z,97550.44
2022-10-15T03:37:30.843Z,97547.47
2022-10-15T03:39:57.690Z,97541.84
2022-10-15T03:42:26.486Z,97539.97
2022-10-15T03:49:45.634Z,97542.09
2022-10-15T03:52:12.166Z,97541.25
2022-10-15T03:54:38.627Z,97538.91
2022-10-15T03:57:05.138Z,97539.19
2022-10-15T03:59:31.615Z,97540.28
2022-10-15T04:01:58.514Z,97537.09
2022-10-15T04:04:25.346Z,97533.34
2022-10-15T04:06:51.813Z,97537.09
2022-10-15T04:09:18.281Z,97529.38
2022-10-15T04:11:44.731Z,97523.25
2022-10-15T04:14:11.260Z,97518.97
2022-10-15T04:16:37.811Z,97531.53
2022-10-15T04:19:07.328Z,97535.34
2022-10-15T04:21:36.703Z,97539.81
2022-10-15T04:24:03.255Z,97543.88
2022-10-15T04:26:29.777Z,97546.56
2022-10-15T04:28:56.307Z,97541.78
2022-10-15T04:31:22.872Z,97548.19
2022-10-15T04:33:49.648Z,97540.97
2022-10-15T04:38:47.812Z,97535.13
2022-10-15T04:41:14.372Z,97536.22
2022-10-15T04:43:40.899Z,97548.47
2022-10-15T04:46:07.574Z,97539.97
2022-10-15T04:48:37.639Z,97550.13
2022-10-15T04:51:08.375Z,97553.59
2022-10-15T04:53:34.863Z,97549.63
2022-10-15T04:56:03.413Z,97552.28
2022-10-15T04:58:31.386Z,97556.84
2022-10-15T05:01:08.955Z,97557.06
2022-10-15T05:03:38.715Z,97539.66
2022-10-15T05:06:15.118Z,97540.97
2022-10-15T05:08:44.583Z,97531.09
2022-10-15T05:11:13.536Z,97542.56
2022-10-15T05:13:40.017Z,97549.47
2022-10-15T05:16:13.570Z,97546.03
2022-10-15T05:18:40.757Z,97539.91
2022-10-15T05:21:07.703Z,97555.91
2022-10-15T05:23:34.263Z,97561.25
2022-10-15T05:26:01.533Z,97566.09
2022-10-15T05:28:28.056Z,97559.44
2022-10-15T05:30:54.552Z,97560.22
2022-10-15T05:33:21.075Z,97565.56
2022-10-15T05:35:47.759Z,97562.41
2022-10-15T05:38:15.291Z,97561.31
2022-10-15T05:40:41.742Z,97562.66
2022-10-15T05:43:08.224Z,97572.53
2022-10-15T05:45:35.031Z,97565.13
2022-10-15T05:48:01.511Z,97569.88
2022-10-15T05:50:27.955Z,97574.88
2022-10-15T05:52:54.521Z,97575.59
2022-10-15T05:55:22.194Z,97578.50
2022-10-15T05:57:48.687Z,97582.75
2022-10-15T06:00:15.722Z,97579.78
2022-10-15T06:02:42.278Z,97584.81
2022-10-15T06:05:09.013Z,97574.66
2022-10-15T06:07:35.511Z,97575.75
2022-10-15T06:14:56.991Z,97583.97
2022-10-15T06:22:16.483Z,97585.56
2022-10-15T06:27:10.066Z,97586.63
2022-10-15T06:32:04.225Z,97590.91
2022-10-15T06:34:30.819Z,97593.56
2022-10-15T06:39:24.886Z,97601.06
2022-10-15T06:41:51.346Z,97607.47
2022-10-15T06:44:17.817Z,97610.94
2022-10-15T06:49:10.933Z,97615.94
2022-10-15T06:51:38.154Z,97612.84
2022-10-15T06:54:04.846Z,97623.16
2022-10-15T06:56:31.366Z,97617.81
2022-10-15T06:58:57.815Z,97621.78
2022-10-15T07:01:24.680Z,97627.44
2022-10-15T07:03:51.473Z,97625.03
2022-10-15T07:06:18.040Z,97625.97
2022-10-15T07:08:45.304Z,97625.41
2022-10-15T07:11:11.828Z,97626.97
2022-10-15T07:13:38.502Z,97631.03
2022-10-15T07:16:06.336Z,97629.78
2022-10-15T07:18:33.174Z,97630.28
2022-10-15T07:20:59.766Z,97628.47
2022-10-15T07:23:27.894Z,97637.34
2022-10-15T07:25:57.020Z,97635.75
2022-10-15T07:28:23.598Z,97641.09
2022-10-15T07:30:50.117Z,97634.66
2022-10-15T07:33:17.690Z,97641.09
2022-10-15T07:35:44.157Z,97643.78
2022-10-15T07:38:10.802Z,97644.50
2022-10-15T07:40:37.417Z,97644.50
2022-10-15T07:43:03.931Z,97637.34
2022-10-15T07:45:30.397Z,97648.81
2022-10-15T07:47:56.948Z,97641.41
2022-10-15T07:50:23.406Z,97647.81
2022-10-15T07:52:49.896Z,97643.41
2022-10-15T07:55:16.720Z,97658.03
2022-10-15T07:57:43.196Z,97648.38
2022-10-15T08:00:10.252Z,97651.34
2022-10-15T08:02:36.724Z,97655.06
2022-10-15T08:05:03.429Z,97649.72
2022-10-15T08:07:29.870Z,97659.91
2022-10-15T08:09:56.351Z,97655.34
2022-10-15T08:12:22.980Z,97651.09
2022-10-15T08:14:49.592Z,97645.78
2022-10-15T08:17:16.072Z,97647.88
2022-10-15T08:19:42.581Z,97656.09
2022-10-15T08:22:09.065Z,97654.00
2022-10-15T08:24:35.535Z,97657.22
2022-10-15T08:27:01.974Z,97654.06
2022-10-15T08:29:28.425Z,97663.41
2022-10-15T08:31:54.871Z,97661.53
2022-10-15T08:34:21.366Z,97661.78
2022-10-15T08:36:47.809Z,97651.41
2022-10-15T08:39:14.904Z,97647.28
2022-10-15T08:41:46.642Z,97653.34
2022-10-15T08:44:19.797Z,97642.38
2022-10-15T08:46:47.315Z,97647.63
2022-10-15T08:49:26.527Z,97642.72
2022-10-15T08:51:55.236Z,97644.78
2022-10-15T08:54:21.712Z,97647.91
2022-10-15T08:56:50.871Z,97645.66
2022-10-15T08:59:21.054Z,97641.84
2022-10-15T09:01:51.819Z,97637.81
2022-10-15T09:04:38.670Z,97641.72
2022-10-15T09:07:18.305Z,97630.47
2022-10-15T09:09:54.198Z,97641.88
2022-10-15T09:12:45.283Z,97638.06
2022-10-15T09:15:17.064Z,97637.78
2022-10-15T09:17:43.817Z,97634.59
2022-10-15T09:20:25.159Z,97635.53
2022-10-15T09:22:51.957Z,97627.94
2022-10-15T09:25:20.296Z,97629.34
2022-10-15T09:27:49.349Z,97626.63
2022-10-15T09:30:39.414Z,97627.13
2022-10-15T09:33:13.509Z,97627.34
2022-10-15T09:36:08.333Z,97621.41
2022-10-15T09:38:37.613Z,97624.81
2022-10-15T09:41:16.507Z,97628.44
2022-10-15T09:43:45.163Z,97632.66
2022-10-15T09:46:11.941Z,97634.69
2022-10-15T09:48:51.013Z,97630.31
2022-10-15T09:51:41.476Z,97646.19
2022-10-15T09:54:20.279Z,97636.38
2022-10-15T09:56:48.275Z,97634.97
2022-10-15T09:59:18.673Z,97638.22
2022-10-15T10:01:57.617Z,97641.69
2022-10-15T10:04:44.571Z,97640.91
2022-10-15T10:07:27.806Z,97633.44
2022-10-15T10:09:55.843Z,97639.34
2022-10-15T10:12:27.493Z,97637.56
2022-10-15T10:15:03.061Z,97638.66
2022-10-15T10:17:29.764Z,97634.47
2022-10-15T10:20:09.022Z,97629.13
2022-10-15T10:22:52.620Z,97631.22
2022-10-15T10:25:38.273Z,97634.88
2022-10-15T10:28:25.343Z,97631.94
2022-10-15T10:30:55.732Z,97637.56
2022-10-15T10:33:28.994Z,97647.75
2022-10-15T10:35:57.030Z,97636.56
2022-10-15T10:38:24.176Z,97636.47
2022-10-15T10:41:07.618Z,97624.91
2022-10-15T10:43:39.565Z,97641.97
2022-10-15T10:46:15.391Z,97646.25
2022-10-15T10:48:49.022Z,97652.78
2022-10-15T10:51:21.027Z,97651.59
2022-10-15T10:54:00.630Z,97639.53
2022-10-15T10:56:31.455Z,97625.38
2022-10-15T10:59:16.860Z,97635.75
2022-10-15T11:01:43.343Z,97626.28
2022-10-15T11:04:17.032Z,97633.69
2022-10-15T11:07:00.617Z,97627.47
2022-10-15T11:09:59.539Z,97623.00
2022-10-15T11:12:44.668Z,97617.94
2022-10-15T11:15:19.050Z,97628.22
2022-10-15T11:17:48.543Z,97613.53
2022-10-15T11:20:40.039Z,97609.72
2022-10-15T11:23:33.489Z,97594.09
2022-10-15T11:26:02.292Z,97602.91
2022-10-15T11:29:06.331Z,97595.75
2022-10-15T11:31:49.274Z,97592.59
2022-10-15T11:34:43.449Z,97599.31
2022-10-15T11:37:29.664Z,97602.50
2022-10-15T11:40:32.429Z,97598.53
2022-10-15T11:42:59.983Z,97588.50
2022-10-15T11:45:39.428Z,97586.44
2022-10-15T11:48:28.965Z,97584.91
2022-10-15T11:51:33.161Z,97587.88
2022-10-15T11:54:02.258Z,97588.66
2022-10-15T11:56:34.910Z,97578.59
2022-10-15T11:59:27.793Z,97573.81
2022-10-15T12:02:14.075Z,97576.25
2022-10-15T12:04:51.819Z,97576.19
2022-10-15T12:07:29.311Z,97571.44
2022-10-15T12:09:57.459Z,97560.94
2022-10-15T12:13:01.958Z,97565.78
2022-10-15T12:15:39.449Z,97557.56
2022-10-15T12:18:21.268Z,97553.31
2022-10-15T12:20:49.840Z,97553.09
2022-10-15T12:23:39.615Z,97549.63
2022-10-15T12:26:24.482Z,97558.44
2022-10-15T12:28:52.571Z,97542.19
2022-10-15T12:31:20.719Z,97546.25
2022-10-15T12:33:51.070Z,97542.50
2022-10-15T12:36:30.577Z,97548.72
2022-10-15T12:39:27.827Z,97548.22
2022-10-15T12:42:02.719Z,97540.78
2022-10-15T12:44:32.752Z,97539.16
2022-10-15T12:46:59.371Z,97538.66
2022-10-15T12:49:32.355Z,97539.25
2022-10-15T12:51:59.672Z,97539.81
2022-10-15T12:54:39.222Z,97532.34
2022-10-15T12:57:30.611Z,97535.00
2022-10-15T13:00:00.611Z,97525.97
2022-10-15T13:05:28.710Z,97529.72
2022-10-15T13:07:56.019Z,97526.56
2022-10-15T13:10:37.342Z,97524.44
2022-10-15T13:13:04.879Z,97519.13
2022-10-15T13:15:31.410Z,97515.66
2022-10-15T13:18:06.438Z,97515.44
2022-10-15T13:20:37.226Z,97515.97
2022-10-15T13:23:30.182Z,97512.28
2022-10-15T13:26:12.542Z,97513.59
2022-10-15T13:28:41.885Z,97513.84
2022-10-15T13:31:27.667Z,97513.38
2022-10-15T13:34:20.454Z,97516.03
2022-10-15T13:36:46.938Z,97523.53
2022-10-15T13:39:38.703Z,97508.59
2022-10-15T13:42:14.106Z,97517.19
2022-10-15T13:44:41.047Z,97514.53
2022-10-15T13:47:26.493Z,97516.97
2022-10-15T13:50:22.192Z,97515.41
2022-10-15T13:53:09.164Z,97514.88
2022-10-15T13:55:40.003Z,97510.94
2022-10-15T13:58:17.485Z,97513.59
2022-10-15T14:00:48.984Z,97514.66
2022-10-15T14:03:18.492Z,97515.75
2022-10-15T14:05:45.913Z,97508.03
2022-10-15T14:08:24.057Z,97516.31
2022-10-15T14:10:52.332Z,97514.47
2022-10-15T14:13:18.857Z,97518.00
2022-10-15T14:16:14.565Z,97515.81
2022-10-15T14:18:48.132Z,97516.91
2022-10-15T14:21:20.168Z,97516.13
2022-10-15T14:23:47.095Z,97518.78
2022-10-15T14:26:13.884Z,97516.69
2022-10-15T14:28:40.445Z,97518.56
2022-10-15T14:31:07.094Z,97512.13
2022-10-15T14:33:36.509Z,97521.22
2022-10-15T14:36:03.950Z,97516.69
2022-10-15T14:38:30.412Z,97512.72
2022-10-15T14:41:07.361Z,97514.31
2022-10-15T14:43:37.340Z,97519.91
2022-10-15T14:46:05.123Z,97507.44
2022-10-15T14:48:36.321Z,97520.72
2022-10-15T14:51:07.459Z,97519.34
2022-10-15T14:53:36.920Z,97518.00
2022-10-15T14:56:09.872Z,97520.06
2022-10-15T14:58:36.327Z,97516.59
2022-10-15T15:01:04.093Z,97514.72
2022-10-15T15:03:41.640Z,97512.06
2022-10-15T15:06:08.389Z,97522.72
2022-10-15T15:08:34.839Z,97519.28
2022-10-15T15:11:03.076Z,97515.81
2022-10-15T15:13:30.744Z,97510.19
2022-10-15T15:15:57.241Z,97508.13
2022-10-15T15:18:23.807Z,97516.91
2022-10-15T15:20:50.533Z,97516.13
2022-10-15T15:23:21.547Z,97516.13
2022-10-15T15:25:48.053Z,97515.03
2022-10-15T15:28:16.555Z,97503.03
2022-10-15T15:30:44.001Z,97502.25
2022-10-15T15:33:11.813Z,97507.31
2022-10-15T15:35:50.684Z,97505.22
2022-10-15T15:38:21.793Z,97511.13
2022-10-15T15:40:48.449Z,97509.84
2022-10-15T15:43:16.402Z,97511.41
2022-10-15T15:45:42.934Z,97515.66
2022-10-15T15:48:09.483Z,97513.53
2022-10-15T15:50:36.090Z,97524.19
2022-10-15T15:53:02.816Z,97524.47
2022-10-15T15:55:29.527Z,97518.56
2022-10-15T15:57:55.986Z,97516.31
2022-10-15T16:00:22.459Z,97515.75
2022-10-15T16:05:16.003Z,97530.75
2022-10-15T16:07:43.359Z,97530.47
2022-10-15T16:10:11.942Z,97532.03
2022-10-15T16:12:39.402Z,97534.94
2022-10-15T16:15:07.925Z,97529.88
2022-10-15T16:17:36.959Z,97529.38
2022-10-15T16:20:04.511Z,97531.97
2022-10-15T16:22:31.002Z,97527.72
2022-10-15T16:24:57.496Z,97536.94
2022-10-15T16:27:24.382Z,97538.72
2022-10-15T16:29:51.573Z,97551.81
2022-10-15T16:32:18.825Z,97546.66
2022-10-15T16:34:45.618Z,97557.28
2022-10-15T16:37:12.156Z,97545.59
2022-10-15T16:39:38.697Z,97551.03
2022-10-15T16:42:05.607Z,97552.00
2022-10-15T16:44:32.188Z,97548.84
2022-10-15T16:46:58.709Z,97557.06
2022-10-15T16:49:25.244Z,97548.78
2022-10-15T16:51:51.763Z,97559.38
2022-10-15T16:54:18.292Z,97555.63
2022-10-15T16:56:49.038Z,97563.66
2022-10-15T16:59:18.610Z,97555.78
2022-10-15T17:01:45.112Z,97555.84
2022-10-15T17:04:11.675Z,97565.25
2022-10-15T17:06:38.119Z,97565.97
2022-10-15T17:09:04.684Z,97571.78
2022-10-15T17:11:33.193Z,97572.00
2022-10-15T17:14:00.878Z,97574.59
2022-10-15T17:16:29.064Z,97576.78
2022-10-15T17:18:56.196Z,97574.09
2022-10-15T17:21:24.349Z,97580.25
2022-10-15T17:23:51.644Z,97576.97
2022-10-15T17:26:20.086Z,97581.44
2022-10-15T17:28:47.264Z,97577.72
2022-10-15T17:31:15.791Z,97585.72
2022-10-15T17:33:42.692Z,97585.78
2022-10-15T17:36:19.490Z,97585.78
2022-10-15T17:38:45.979Z,97585.19
2022-10-15T17:41:14.020Z,97596.19
2022-10-15T17:43:40.523Z,97598.34
2022-10-15T17:46:10.192Z,97591.72
2022-10-15T17:48:38.136Z,97593.06
2022-10-15T17:51:05.713Z,97597.94
2022-10-15T17:53:32.204Z,97608.09
2022-10-15T17:55:58.778Z,97615.31
2022-10-15T17:58:25.362Z,97607.59
2022-10-15T18:00:56.159Z,97615.31
2022-10-15T18:03:23.030Z,97619.78
2022-10-15T18:05:49.930Z,97634.44
2022-10-15T18:08:16.784Z,97639.00
2022-10-15T18:10:45.165Z,97645.69
2022-10-15T18:13:12.669Z,97657.63
2022-10-15T18:15:47.729Z,97659.28
2022-10-15T18:18:14.459Z,97659.94
2022-10-15T18:20:41.696Z,97656.97
2022-10-15T18:23:08.156Z,97656.97
2022-10-15T18:25:34.710Z,97661.75
2022-10-15T18:28:01.516Z,97670.09
2022-10-15T18:30:28.171Z,97678.72
2022-10-15T18:32:57.288Z,97671.16
2022-10-15T18:35:25.334Z,97681.81
2022-10-15T18:37:51.792Z,97687.44
2022-10-15T18:40:18.271Z,97699.22
2022-10-15T18:42:47.668Z,97680.81
2022-10-15T18:45:14.504Z,97677.63
2022-10-15T18:47:41.408Z,97677.94
2022-10-15T18:50:08.333Z,97691.28
2022-10-15T18:52:39.880Z,97689.72
2022-10-15T18:55:07.410Z,97697.22
2022-10-15T18:57:34.762Z,97702.09
2022-10-15T19:00:01.290Z,97697.00
2022-10-15T19:02:28.046Z,97702.97
2022-10-15T19:04:54.669Z,97708.31
2022-10-15T19:07:21.132Z,97716.63
2022-10-15T19:09:47.685Z,97719.81
2022-10-15T19:12:14.137Z,97724.56
2022-10-15T19:14:40.607Z,97731.13
2022-10-15T19:17:07.092Z,97731.63
2022-10-15T19:19:33.561Z,97735.09
2022-10-15T19:22:00.021Z,97743.44
2022-10-15T19:24:26.555Z,97745.75
2022-10-15T19:26:53.063Z,97761.19
2022-10-15T19:29:19.941Z,97754.47
2022-10-15T19:31:46.819Z,97765.16
2022-10-15T19:34:13.390Z,97766.53
2022-10-15T19:36:41.927Z,97763.88
2022-10-15T19:39:12.970Z,97773.78
2022-10-15T19:41:40.100Z,97765.41
2022-10-15T19:44:08.132Z,97770.81
2022-10-15T19:46:35.788Z,97760.69
2022-10-15T19:49:02.255Z,97769.31
2022-10-15T19:51:28.727Z,97774.97
2022-10-15T19:53:56.366Z,97776.34
2022-10-15T19:56:22.856Z,97771.28
2022-10-15T19:58:54.530Z,97769.19
2022-10-15T20:01:21.037Z,97764.66
2022-10-15T20:03:47.527Z,97770.66
2022-10-15T20:06:14.011Z,97777.03
2022-10-15T20:08:40.466Z,97782.66
2022-10-15T20:11:07.651Z,97790.97
2022-10-15T20:13:34.283Z,97793.94
2022-10-15T20:16:06.250Z,97809.88
2022-10-15T20:18:32.804Z,97805.75
2022-10-15T20:20:59.325Z,97813.25
2022-10-15T20:23:28.971Z,97814.84
2022-10-15T20:25:55.431Z,97822.44
2022-10-15T20:28:21.928Z,97819.25
2022-10-15T20:30:49.842Z,97833.06
2022-10-15T20:33:16.350Z,97836.69
2022-10-15T20:35:42.812Z,97838.13
2022-10-15T20:38:09.292Z,97842.69
2022-10-15T20:40:38.556Z,97840.59
2022-10-15T20:43:05.004Z,97842.75
2022-10-15T20:45:34.523Z,97846.00
2022-10-15T20:48:01.400Z,97847.66
2022-10-15T20:50:31.803Z,97853.59
2022-10-15T20:52:58.277Z,97846.38
2022-10-15T20:55:24.754Z,97858.97
2022-10-15T20:57:51.268Z,97861.56
2022-10-15T21:00:17.785Z,97861.63
2022-10-15T21:02:44.253Z,97863.59
2022-10-15T21:05:10.756Z,97866.44
2022-10-15T21:07:37.284Z,97867.03
2022-10-15T21:10:04.440Z,97864.91
2022-10-15T21:12:30.923Z,97859.84
2022-10-15T21:14:57.440Z,97873.47
2022-10-15T21:17:24.115Z,97869.19
2022-10-15T21:19:52.839Z,97873.97
2022-10-15T21:22:19.679Z,97883.38
2022-10-15T21:24:46.199Z,97888.16
2022-10-15T21:27:12.654Z,97894.88
2022-10-15T21:29:39.172Z,97891.53
2022-10-15T21:32:05.734Z,97900.72
2022-10-15T21:34:32.253Z,97900.09
2022-10-15T21:36:58.778Z,97894.53
2022-10-15T21:39:25.644Z,97888.88
2022-10-15T21:41:52.123Z,97901.59
2022-10-15T21:44:18.654Z,97920.81
2022-10-15T21:46:45.174Z,97915.44
2022-10-15T21:49:11.947Z,97924.50
2022-10-15T21:51:38.446Z,97928.72
2022-10-15T21:54:05.305Z,97931.59
2022-10-15T21:56:31.900Z,97930.81
2022-10-15T21:59:01.430Z,97937.25
2022-10-15T22:01:32.488Z,97939.44
2022-10-15T22:04:03.545Z,97937.81
2022-10-15T22:06:30.319Z,97942.19
2022-10-15T22:08:56.819Z,97938.75
2022-10-15T22:11:28.181Z,97942.81
2022-10-15T22:13:56.524Z,97937.97
2022-10-15T22:16:23.695Z,97936.38
2022-10-15T22:18:50.221Z,97951.94
2022-10-15T22:21:30.639Z,97949.03
2022-10-15T22:23:57.937Z,97954.66
2022-10-15T22:26:26.276Z,97952.03
2022-10-15T22:28:54.054Z,97957.97
2022-10-15T22:31:20.559Z,97956.16
2022-10-15T22:33:47.082Z,97954.34
2022-10-15T22:36:18.259Z,97956.78
2022-10-15T22:38:45.952Z,97955.78
2022-10-15T22:41:13.383Z,97951.50
2022-10-15T22:43:39.876Z,97958.47
2022-10-15T22:46:06.351Z,97950.44
2022-10-15T22:48:36.306Z,97949.16
2022-10-15T22:51:03.790Z,97953.47
2022-10-15T22:53:30.304Z,97947.34
2022-10-15T22:56:03.911Z,97957.22
2022-10-15T22:58:30.828Z,97941.28
2022-10-15T23:01:11.526Z,97938.56
2022-10-15T23:03:38.417Z,97942.63
2022-10-15T23:06:05.019Z,97947.97
2022-10-15T23:08:32.266Z,97948.25
2022-10-15T23:11:14.843Z,97945.06
2022-10-15T23:13:41.815Z,97944.03
2022-10-15T23:16:18.673Z,97947.78
2022-10-15T23:18:46.296Z,97950.75
2022-10-15T23:21:14.701Z,97949.66
2022-10-15T23:23:41.840Z,97949.19
2022-10-15T23:26:10.875Z,97960.72
2022-10-15T23:28:37.372Z,97954.09
2022-10-15T23:31:03.864Z,97954.09
2022-10-15T23:33:30.372Z,97956.03
2022-10-15T23:35:58.039Z,97954.69
2022-10-15T23:38:24.508Z,97957.94
2022-10-15T23:40:51.920Z,97962.47
2022-10-15T23:43:18.432Z,97971.56
2022-10-15T23:45:44.902Z,97966.00
2022-10-15T23:48:11.366Z,97963.31
2022-10-15T23:50:37.894Z,97969.69
2022-10-15T23:53:04.421Z,97972.31
2022-10-15T23:55:31.652Z,97969.03
2022-10-15T23:57:58.103Z,97963.03
